sensor_id;sensor_type;location;lat;lon;timestamp;pressure;altitude;pressure_sealevel;temperature;humidity
8318;BME280;4196;48.926;8.964;2023-05-16T00:01:37;98728.81;;;10.88;100.00
8318;BME280;4196;48.926;8.964;2023-05-16T00:04:24;98735.72;;;10.86;100.00
8318;BME280;4196;48.926;8.964;2023-05-16T00:07:11;98717.75;;;10.72;100.00
8318;BME280;4196;48.926;8.964;2023-05-16T00:09:58;98735.78;;;10.81;100.00
8318;BME280;4196;48.926;8.964;2023-05-16T00:12:44;98719.47;;;10.70;100.00
8318;BME280;4196;48.926;8.964;2023-05-16T00:15:32;98723.78;;;10.70;100.00
8318;BME280;4196;48.926;8.964;2023-05-16T00:18:18;98733.13;;;10.87;100.00
8318;BME280;4196;48.926;8.964;2023-05-16T00:21:05;98747.84;;;10.84;100.00
8318;BME280;4196;48.926;8.964;2023-05-16T00:23:52;98726.28;;;10.80;100.00
8318;BME280;4196;48.926;8.964;2023-05-16T00:26:38;98718.50;;;10.82;100.00
8318;BME280;4196;48.926;8.964;2023-05-16T00:29:24;98717.63;;;10.84;100.00
8318;BME280;4196;48.926;8.964;2023-05-16T00:32:11;98720.13;;;10.92;100.00
8318;BME280;4196;48.926;8.964;2023-05-16T00:34:58;98715.72;;;11.00;100.00
8318;BME280;4196;48.926;8.964;2023-05-16T00:37:47;98720.94;;;10.99;100.00
8318;BME280;4196;48.926;8.964;2023-05-16T00:40:34;98710.72;;;10.86;100.00
8318;BME280;4196;48.926;8.964;2023-05-16T00:43:20;98713.19;;;10.97;100.00
8318;BME280;4196;48.926;8.964;2023-05-16T00:46:09;98727.06;;;10.92;100.00
8318;BME280;4196;48.926;8.964;2023-05-16T00:48:55;98725.44;;;10.78;100.00
8318;BME280;4196;48.926;8.964;2023-05-16T00:51:41;98721.13;;;10.77;100.00
8318;BME280;4196;48.926;8.964;2023-05-16T00:54:29;98736.59;;;10.86;100.00
8318;BME280;4196;48.926;8.964;2023-05-16T00:57:15;98716.88;;;10.72;100.00
8318;BME280;4196;48.926;8.964;2023-05-16T01:00:06;98728.91;;;10.77;100.00
8318;BME280;4196;48.926;8.964;2023-05-16T01:02:55;98739.19;;;10.85;100.00
8318;BME280;4196;48.926;8.964;2023-05-16T01:05:42;98710.91;;;10.62;100.00
8318;BME280;4196;48.926;8.964;2023-05-16T01:08:31;98738.38;;;10.78;100.00
8318;BME280;4196;48.926;8.964;2023-05-16T01:17:28;98744.44;;;10.79;100.00
8318;BME280;4196;48.926;8.964;2023-05-16T01:23:39;98728.94;;;10.71;100.00
8318;BME280;4196;48.926;8.964;2023-05-16T01:26:27;98695.50;;;10.50;100.00
8318;BME280;4196;48.926;8.964;2023-05-16T01:29:15;98696.41;;;10.43;100.00
8318;BME280;4196;48.926;8.964;2023-05-16T01:32:01;98734.19;;;10.63;100.00
8318;BME280;4196;48.926;8.964;2023-05-16T01:34:50;98693.91;;;10.30;100.00
8318;BME280;4196;48.926;8.964;2023-05-16T01:37:51;98747.16;;;10.62;100.00
8318;BME280;4196;48.926;8.964;2023-05-16T01:43:45;98752.31;;;10.63;100.00
8318;BME280;4196;48.926;8.964;2023-05-16T01:46:36;98720.47;;;10.57;100.00
8318;BME280;4196;48.926;8.964;2023-05-16T01:49:30;98738.50;;;10.66;100.00
8318;BME280;4196;48.926;8.964;2023-05-16T01:52:24;98749.75;;;10.62;100.00
8318;BME280;4196;48.926;8.964;2023-05-16T01:55:28;98746.38;;;10.51;100.00
8318;BME280;4196;48.926;8.964;2023-05-16T01:58:24;98739.44;;;10.53;100.00
8318;BME280;4196;48.926;8.964;2023-05-16T02:01:12;98723.16;;;10.42;100.00
8318;BME280;4196;48.926;8.964;2023-05-16T02:03:58;98721.41;;;10.47;100.00
8318;BME280;4196;48.926;8.964;2023-05-16T02:06:45;98705.91;;;10.37;100.00
8318;BME280;4196;48.926;8.964;2023-05-16T02:09:35;98750.59;;;10.64;100.00
8318;BME280;4196;48.926;8.964;2023-05-16T02:12:21;98729.97;;;10.52;100.00
8318;BME280;4196;48.926;8.964;2023-05-16T02:15:08;98750.59;;;10.64;100.00
8318;BME280;4196;48.926;8.964;2023-05-16T02:17:55;98711.03;;;10.47;100.00
8318;BME280;4196;48.926;8.964;2023-05-16T02:20:41;98744.53;;;10.63;100.00
8318;BME280;4196;48.926;8.964;2023-05-16T02:23:28;98744.50;;;10.70;100.00
8318;BME280;4196;48.926;8.964;2023-05-16T02:26:14;98754.75;;;10.82;100.00
8318;BME280;4196;48.926;8.964;2023-05-16T02:29:01;98760.84;;;10.79;100.00
8318;BME280;4196;48.926;8.964;2023-05-16T02:31:47;98728.16;;;10.64;100.00
8318;BME280;4196;48.926;8.964;2023-05-16T02:34:33;98731.44;;;10.83;100.00
8318;BME280;4196;48.926;8.964;2023-05-16T02:37:20;98748.66;;;10.91;100.00
8318;BME280;4196;48.926;8.964;2023-05-16T02:40:09;98760.72;;;10.95;100.00
8318;BME280;4196;48.926;8.964;2023-05-16T02:42:55;98734.06;;;10.80;100.00
8318;BME280;4196;48.926;8.964;2023-05-16T02:45:43;98752.06;;;10.93;100.00
8318;BME280;4196;48.926;8.964;2023-05-16T02:48:29;98766.69;;;11.00;100.00
8318;BME280;4196;48.926;8.964;2023-05-16T02:51:21;98763.25;;;10.99;100.00
8318;BME280;4196;48.926;8.964;2023-05-16T02:54:08;98730.56;;;10.84;100.00
8318;BME280;4196;48.926;8.964;2023-05-16T02:56:55;98750.38;;;10.92;100.00
8318;BME280;4196;48.926;8.964;2023-05-16T02:59:41;98755.56;;;10.90;100.00
8318;BME280;4196;48.926;8.964;2023-05-16T03:02:28;98753.84;;;10.89;100.00
8318;BME280;4196;48.926;8.964;2023-05-16T03:05:14;98743.53;;;10.81;100.00
8318;BME280;4196;48.926;8.964;2023-05-16T03:08:01;98741.84;;;10.80;100.00
8318;BME280;4196;48.926;8.964;2023-05-16T03:10:48;98744.53;;;10.68;100.00
8318;BME280;4196;48.926;8.964;2023-05-16T03:13:34;98753.06;;;10.78;100.00
8318;BME280;4196;48.926;8.964;2023-05-16T03:16:21;98743.66;;;10.69;100.00
8318;BME280;4196;48.926;8.964;2023-05-16T03:19:07;98752.16;;;10.86;100.00
8318;BME280;4196;48.926;8.964;2023-05-16T03:21:54;98762.56;;;10.77;100.00
8318;BME280;4196;48.926;8.964;2023-05-16T03:24:40;98758.28;;;10.76;100.00
8318;BME280;4196;48.926;8.964;2023-05-16T03:27:29;98761.69;;;10.83;100.00
8318;BME280;4196;48.926;8.964;2023-05-16T03:30:16;98773.69;;;10.88;100.00
8318;BME280;4196;48.926;8.964;2023-05-16T03:33:04;98753.06;;;10.79;100.00
8318;BME280;4196;48.926;8.964;2023-05-16T03:35:51;98761.69;;;10.78;100.00
8318;BME280;4196;48.926;8.964;2023-05-16T03:38:37;98764.25;;;10.81;100.00
8318;BME280;4196;48.926;8.964;2023-05-16T03:41:24;98748.72;;;10.81;100.00
8318;BME280;4196;48.926;8.964;2023-05-16T03:44:11;98738.50;;;10.63;100.00
8318;BME280;4196;48.926;8.964;2023-05-16T03:46:58;98763.50;;;10.70;100.00
8318;BME280;4196;48.926;8.964;2023-05-16T03:49:44;98765.19;;;10.76;100.00
8318;BME280;4196;48.926;8.964;2023-05-16T03:52:31;98771.16;;;10.82;100.00
8318;BME280;4196;48.926;8.964;2023-05-16T03:55:17;98759.16;;;10.75;100.00
8318;BME280;4196;48.926;8.964;2023-05-16T03:58:03;98754.84;;;10.73;100.00
8318;BME280;4196;48.926;8.964;2023-05-16T04:00:50;98748.88;;;10.63;100.00
8318;BME280;4196;48.926;8.964;2023-05-16T04:03:36;98782.34;;;10.87;100.00
8318;BME280;4196;48.926;8.964;2023-05-16T04:06:23;98786.66;;;10.88;100.00
8318;BME280;4196;48.926;8.964;2023-05-16T04:09:10;98779.75;;;10.87;100.00
8318;BME280;4196;48.926;8.964;2023-05-16T04:11:57;98764.34;;;10.75;100.00
8318;BME280;4196;48.926;8.964;2023-05-16T04:14:46;98770.38;;;10.71;100.00
8318;BME280;4196;48.926;8.964;2023-05-16T04:17:33;98755.75;;;10.67;100.00
8318;BME280;4196;48.926;8.964;2023-05-16T04:20:20;98782.34;;;10.86;100.00
8318;BME280;4196;48.926;8.964;2023-05-16T04:23:06;98790.09;;;10.89;100.00
8318;BME280;4196;48.926;8.964;2023-05-16T04:25:53;98790.94;;;10.89;100.00
8318;BME280;4196;48.926;8.964;2023-05-16T04:28:40;98778.91;;;10.85;100.00
8318;BME280;4196;48.926;8.964;2023-05-16T04:31:26;98791.78;;;10.95;100.00
8318;BME280;4196;48.926;8.964;2023-05-16T04:34:13;98775.47;;;10.83;100.00
8318;BME280;4196;48.926;8.964;2023-05-16T04:37:00;98764.31;;;10.77;100.00
8318;BME280;4196;48.926;8.964;2023-05-16T04:39:47;98744.44;;;10.79;100.00
8318;BME280;4196;48.926;8.964;2023-05-16T04:42:34;98780.47;;;11.03;100.00
8318;BME280;4196;48.926;8.964;2023-05-16T04:45:20;98774.47;;;11.00;100.00
8318;BME280;4196;48.926;8.964;2023-05-16T04:48:07;98801.13;;;11.12;100.00
8318;BME280;4196;48.926;8.964;2023-05-16T04:50:53;98790.88;;;11.00;100.00
8318;BME280;4196;48.926;8.964;2023-05-16T04:53:40;98793.38;;;11.08;100.00
8318;BME280;4196;48.926;8.964;2023-05-16T04:56:27;98786.41;;;11.16;100.00
8318;BME280;4196;48.926;8.964;2023-05-16T04:59:13;98806.34;;;11.09;100.00
8318;BME280;4196;48.926;8.964;2023-05-16T05:02:00;98799.47;;;11.04;100.00
8318;BME280;4196;48.926;8.964;2023-05-16T05:04:46;98820.88;;;11.27;100.00
8318;BME280;4196;48.926;8.964;2023-05-16T05:07:33;98807.06;;;11.22;100.00
8318;BME280;4196;48.926;8.964;2023-05-16T05:10:20;98814.03;;;11.20;100.00
8318;BME280;4196;48.926;8.964;2023-05-16T05:13:06;98819.94;;;11.33;100.00
8318;BME280;4196;48.926;8.964;2023-05-16T05:15:53;98836.22;;;11.49;100.00
8318;BME280;4196;48.926;8.964;2023-05-16T05:18:39;98837.22;;;11.32;100.00
8318;BME280;4196;48.926;8.964;2023-05-16T05:21:26;98841.44;;;11.46;100.00
8318;BME280;4196;48.926;8.964;2023-05-16T05:24:13;98848.34;;;11.44;100.00
8318;BME280;4196;48.926;8.964;2023-05-16T05:26:59;98838.16;;;11.27;100.00
8318;BME280;4196;48.926;8.964;2023-05-16T05:29:45;98830.44;;;11.21;100.00
8318;BME280;4196;48.926;8.964;2023-05-16T05:32:31;98827.97;;;11.04;100.00
8318;BME280;4196;48.926;8.964;2023-05-16T05:35:18;98846.09;;;11.08;100.00
8318;BME280;4196;48.926;8.964;2023-05-16T05:38:05;98837.47;;;11.03;100.00
8318;BME280;4196;48.926;8.964;2023-05-16T05:40:51;98821.16;;;10.94;100.00
8318;BME280;4196;48.926;8.964;2023-05-16T05:43:38;98823.72;;;10.97;100.00
8318;BME280;4196;48.926;8.964;2023-05-16T05:46:24;98848.66;;;11.10;100.00
8318;BME280;4196;48.926;8.964;2023-05-16T05:49:11;98852.16;;;11.06;100.00
8318;BME280;4196;48.926;8.964;2023-05-16T05:51:58;98855.50;;;11.16;100.00
8318;BME280;4196;48.926;8.964;2023-05-16T05:54:44;98844.25;;;11.18;100.00
8318;BME280;4196;48.926;8.964;2023-05-16T05:57:31;98805.63;;;10.94;100.00
8318;BME280;4196;48.926;8.964;2023-05-16T06:00:17;98852.91;;;11.17;100.00
8318;BME280;4196;48.926;8.964;2023-05-16T06:03:04;98856.31;;;11.22;100.00
8318;BME280;4196;48.926;8.964;2023-05-16T06:05:50;98859.78;;;11.24;100.00
8318;BME280;4196;48.926;8.964;2023-05-16T06:08:37;98846.81;;;11.24;100.00
8318;BME280;4196;48.926;8.964;2023-05-16T06:11:23;98853.63;;;11.34;100.00
8318;BME280;4196;48.926;8.964;2023-05-16T06:14:10;98826.97;;;11.23;100.00
8318;BME280;4196;48.926;8.964;2023-05-16T06:16:56;98831.13;;;11.40;100.00
8318;BME280;4196;48.926;8.964;2023-05-16T06:19:43;98839.78;;;11.35;100.00
8318;BME280;4196;48.926;8.964;2023-05-16T06:22:29;98855.31;;;11.37;100.00
8318;BME280;4196;48.926;8.964;2023-05-16T06:25:16;98862.25;;;11.36;100.00
8318;BME280;4196;48.926;8.964;2023-05-16T06:28:02;98852.81;;;11.26;100.00
8318;BME280;4196;48.926;8.964;2023-05-16T06:30:48;98868.25;;;11.40;100.00
8318;BME280;4196;48.926;8.964;2023-05-16T06:33:37;98894.22;;;11.37;100.00
8318;BME280;4196;48.926;8.964;2023-05-16T06:36:23;98870.13;;;11.24;100.00
8318;BME280;4196;48.926;8.964;2023-05-16T06:39:09;98884.75;;;11.31;100.00
8318;BME280;4196;48.926;8.964;2023-05-16T06:41:57;98881.31;;;11.29;100.00
8318;BME280;4196;48.926;8.964;2023-05-16T06:44:43;98881.41;;;11.20;100.00
8318;BME280;4196;48.926;8.964;2023-05-16T06:47:29;98881.50;;;11.09;100.00
8318;BME280;4196;48.926;8.964;2023-05-16T06:50:16;98890.06;;;11.16;100.00
8318;BME280;4196;48.926;8.964;2023-05-16T06:53:02;98890.84;;;11.26;100.00
8318;BME280;4196;48.926;8.964;2023-05-16T06:55:50;98899.47;;;11.28;100.00
8318;BME280;4196;48.926;8.964;2023-05-16T06:58:36;98894.22;;;11.37;100.00
8318;BME280;4196;48.926;8.964;2023-05-16T07:01:23;98895.03;;;11.44;100.00
8318;BME280;4196;48.926;8.964;2023-05-16T07:04:10;98870.94;;;11.31;100.00
8318;BME280;4196;48.926;8.964;2023-05-16T07:06:56;98840.84;;;11.15;100.00
8318;BME280;4196;48.926;8.964;2023-05-16T07:09:43;98841.59;;;11.27;100.00
8318;BME280;4196;48.926;8.964;2023-05-16T07:12:29;98858.72;;;11.44;100.00
8318;BME280;4196;48.926;8.964;2023-05-16T07:15:16;98866.34;;;11.59;100.00
8318;BME280;4196;48.926;8.964;2023-05-16T07:18:02;98905.09;;;11.74;100.00
8318;BME280;4196;48.926;8.964;2023-05-16T07:20:49;98897.31;;;11.76;100.00
8318;BME280;4196;48.926;8.964;2023-05-16T07:23:36;98909.34;;;11.83;100.00
8318;BME280;4196;48.926;8.964;2023-05-16T07:26:25;98862.84;;;11.65;100.00
8318;BME280;4196;48.926;8.964;2023-05-16T07:29:11;98908.38;;;11.98;100.00
8318;BME280;4196;48.926;8.964;2023-05-16T07:31:58;98903.25;;;11.89;100.00
8318;BME280;4196;48.926;8.964;2023-05-16T07:34:44;98907.63;;;11.87;100.00
8318;BME280;4196;48.926;8.964;2023-05-16T07:37:31;98917.28;;;11.68;100.00
8318;BME280;4196;48.926;8.964;2023-05-16T07:40:17;98902.81;;;11.44;100.00
8318;BME280;4196;48.926;8.964;2023-05-16T07:43:05;98927.81;;;11.48;100.00
8318;BME280;4196;48.926;8.964;2023-05-16T07:45:52;98903.69;;;11.43;100.00
8318;BME280;4196;48.926;8.964;2023-05-16T07:48:39;98899.31;;;11.48;100.00
8318;BME280;4196;48.926;8.964;2023-05-16T07:51:25;98936.28;;;11.71;100.00
8318;BME280;4196;48.926;8.964;2023-05-16T07:54:12;98931.94;;;11.70;100.00
8318;BME280;4196;48.926;8.964;2023-05-16T07:56:59;98895.78;;;11.55;100.00
8318;BME280;4196;48.926;8.964;2023-05-16T07:59:45;98928.63;;;11.57;100.00
8318;BME280;4196;48.926;8.964;2023-05-16T08:02:33;98912.38;;;11.35;100.00
8318;BME280;4196;48.926;8.964;2023-05-16T08:05:20;98943.34;;;11.51;100.00
8318;BME280;4196;48.926;8.964;2023-05-16T08:08:06;98929.63;;;11.40;100.00
8318;BME280;4196;48.926;8.964;2023-05-16T08:10:53;98936.47;;;11.50;100.00
8318;BME280;4196;48.926;8.964;2023-05-16T08:13:40;98935.72;;;11.32;100.00
8318;BME280;4196;48.926;8.964;2023-05-16T08:16:26;98939.06;;;11.50;100.00
8318;BME280;4196;48.926;8.964;2023-05-16T08:19:13;98950.19;;;11.64;100.00
8318;BME280;4196;48.926;8.964;2023-05-16T08:22:00;98950.09;;;11.75;100.00
8318;BME280;4196;48.926;8.964;2023-05-16T08:24:46;98925.03;;;11.71;100.00
8318;BME280;4196;48.926;8.964;2023-05-16T08:27:33;98934.22;;;12.07;100.00
8318;BME280;4196;48.926;8.964;2023-05-16T08:30:19;98916.84;;;12.15;100.00
8318;BME280;4196;48.926;8.964;2023-05-16T08:33:05;98948.53;;;12.42;100.00
8318;BME280;4196;48.926;8.964;2023-05-16T08:35:52;98921.03;;;12.27;100.00
8318;BME280;4196;48.926;8.964;2023-05-16T08:38:39;98948.41;;;12.52;100.00
8318;BME280;4196;48.926;8.964;2023-05-16T08:41:25;98921.41;;;12.64;100.00
8318;BME280;4196;48.926;8.964;2023-05-16T08:44:12;98897.72;;;12.89;100.00
8318;BME280;4196;48.926;8.964;2023-05-16T08:47:17;98907.19;;;12.91;100.00
8318;BME280;4196;48.926;8.964;2023-05-16T08:50:05;98931.34;;;12.98;100.00
8318;BME280;4196;48.926;8.964;2023-05-16T08:52:54;98905.88;;;12.61;100.00
8318;BME280;4196;48.926;8.964;2023-05-16T08:55:41;98904.97;;;12.62;100.00
8318;BME280;4196;48.926;8.964;2023-05-16T08:58:29;98944.38;;;12.96;100.00
8318;BME280;4196;48.926;8.964;2023-05-16T09:01:16;98936.63;;;12.92;100.00
8318;BME280;4196;48.926;8.964;2023-05-16T09:04:06;98940.72;;;13.08;100.00
8318;BME280;4196;48.926;8.964;2023-05-16T09:06:53;98939.84;;;13.09;100.00
8318;BME280;4196;48.926;8.964;2023-05-16T09:09:41;98935.69;;;12.96;100.00
8318;BME280;4196;48.926;8.964;2023-05-16T09:12:27;98950.16;;;13.14;100.00
8318;BME280;4196;48.926;8.964;2023-05-16T09:15:17;98943.59;;;12.90;100.00
8318;BME280;4196;48.926;8.964;2023-05-16T09:18:11;98955.63;;;12.97;100.00
8318;BME280;4196;48.926;8.964;2023-05-16T09:20:58;98943.69;;;12.80;100.00
8318;BME280;4196;48.926;8.964;2023-05-16T09:23:47;98960.00;;;12.92;100.00
8318;BME280;4196;48.926;8.964;2023-05-16T09:26:36;98961.81;;;12.87;100.00
8318;BME280;4196;48.926;8.964;2023-05-16T09:29:23;98952.63;;;12.61;100.00
8318;BME280;4196;48.926;8.964;2023-05-16T09:32:11;98949.19;;;12.59;100.00
8318;BME280;4196;48.926;8.964;2023-05-16T09:34:59;98950.03;;;12.61;100.00
8318;BME280;4196;48.926;8.964;2023-05-16T09:37:49;98970.16;;;12.41;100.00
8318;BME280;4196;48.926;8.964;2023-05-16T09:40:40;98918.53;;;12.19;100.00
8318;BME280;4196;48.926;8.964;2023-05-16T09:43:27;98896.03;;;12.17;100.00
8318;BME280;4196;48.926;8.964;2023-05-16T09:46:14;98945.84;;;12.48;100.00
8318;BME280;4196;48.926;8.964;2023-05-16T09:49:01;98949.25;;;12.56;100.00
8318;BME280;4196;48.926;8.964;2023-05-16T09:51:48;98957.63;;;12.78;100.00
8318;BME280;4196;48.926;8.964;2023-05-16T09:54:35;98962.75;;;12.82;100.00
8318;BME280;4196;48.926;8.964;2023-05-16T09:57:21;98940.00;;;13.00;100.00
8318;BME280;4196;48.926;8.964;2023-05-16T10:00:12;98944.84;;;13.24;100.00
8318;BME280;4196;48.926;8.964;2023-05-16T10:02:59;98946.13;;;13.53;100.00
8318;BME280;4196;48.926;8.964;2023-05-16T10:05:50;98965.50;;;13.86;100.00
8318;BME280;4196;48.926;8.964;2023-05-16T10:08:41;98942.13;;;13.85;100.00
8318;BME280;4196;48.926;8.964;2023-05-16T10:11:28;98926.16;;;13.55;100.00
8318;BME280;4196;48.926;8.964;2023-05-16T10:14:17;98902.66;;;13.60;100.00
8318;BME280;4196;48.926;8.964;2023-05-16T10:17:05;98934.09;;;13.97;100.00
8318;BME280;4196;48.926;8.964;2023-05-16T10:19:53;98929.13;;;14.30;100.00
8318;BME280;4196;48.926;8.964;2023-05-16T10:22:42;98956.25;;;14.64;100.00
8318;BME280;4196;48.926;8.964;2023-05-16T10:25:35;98960.19;;;14.39;99.85
8318;BME280;4196;48.926;8.964;2023-05-16T10:28:24;98942.81;;;14.41;100.00
8318;BME280;4196;48.926;8.964;2023-05-16T10:31:11;98906.56;;;13.85;100.00
8318;BME280;4196;48.926;8.964;2023-05-16T10:33:58;98931.91;;;13.72;100.00
8318;BME280;4196;48.926;8.964;2023-05-16T10:36:45;98893.53;;;12.78;100.00
8318;BME280;4196;48.926;8.964;2023-05-16T10:39:33;98948.69;;;12.96;100.00
8318;BME280;4196;48.926;8.964;2023-05-16T10:42:20;98976.44;;;12.94;100.00
8318;BME280;4196;48.926;8.964;2023-05-16T10:45:18;98977.38;;;12.90;100.00
8318;BME280;4196;48.926;8.964;2023-05-16T10:48:05;98971.13;;;13.03;100.00
8318;BME280;4196;48.926;8.964;2023-05-16T10:50:54;98952.38;;;12.79;100.00
8318;BME280;4196;48.926;8.964;2023-05-16T10:53:40;98967.78;;;12.95;100.00
8318;BME280;4196;48.926;8.964;2023-05-16T10:56:27;98988.56;;;12.95;100.00
8318;BME280;4196;48.926;8.964;2023-05-16T10:59:24;98982.31;;;13.08;100.00
8318;BME280;4196;48.926;8.964;2023-05-16T11:05:13;98937.06;;;12.58;100.00
8318;BME280;4196;48.926;8.964;2023-05-16T11:08:05;98944.66;;;12.73;100.00
8318;BME280;4196;48.926;8.964;2023-05-16T11:19:57;98982.22;;;13.14;100.00
8318;BME280;4196;48.926;8.964;2023-05-16T11:22:46;98967.34;;;13.27;100.00
8318;BME280;4196;48.926;8.964;2023-05-16T11:25:36;98953.53;;;13.23;97.66
8318;BME280;4196;48.926;8.964;2023-05-16T11:28:28;98976.56;;;13.46;98.16
8318;BME280;4196;48.926;8.964;2023-05-16T11:31:16;98999.63;;;13.69;96.95
8318;BME280;4196;48.926;8.964;2023-05-16T11:34:04;98994.31;;;13.75;96.48
8318;BME280;4196;48.926;8.964;2023-05-16T11:36:51;98988.41;;;13.66;95.27
8318;BME280;4196;48.926;8.964;2023-05-16T11:39:37;98977.47;;;13.44;94.76
8318;BME280;4196;48.926;8.964;2023-05-16T11:42:28;98977.72;;;13.30;96.12
8318;BME280;4196;48.926;8.964;2023-05-16T11:45:16;98965.31;;;13.46;93.19
8318;BME280;4196;48.926;8.964;2023-05-16T11:48:03;98988.06;;;13.32;92.66
8318;BME280;4196;48.926;8.964;2023-05-16T11:50:50;98981.94;;;13.37;90.03
8318;BME280;4196;48.926;8.964;2023-05-16T11:53:39;98982.22;;;13.14;90.03
8318;BME280;4196;48.926;8.964;2023-05-16T11:56:25;98997.00;;;13.12;92.64
8318;BME280;4196;48.926;8.964;2023-05-16T11:59:12;99003.69;;;13.32;92.83
8318;BME280;4196;48.926;8.964;2023-05-16T12:02:02;99011.38;;;13.39;93.16
8318;BME280;4196;48.926;8.964;2023-05-16T12:04:49;99013.28;;;13.26;91.74
8318;BME280;4196;48.926;8.964;2023-05-16T12:07:36;98977.28;;;12.97;92.69
8318;BME280;4196;48.926;8.964;2023-05-16T12:10:23;98999.22;;;12.73;95.31
8318;BME280;4196;48.926;8.964;2023-05-16T12:13:10;99013.66;;;12.23;95.77
8318;BME280;4196;48.926;8.964;2023-05-16T12:15:57;99029.53;;;11.90;99.04
8318;BME280;4196;48.926;8.964;2023-05-16T12:18:44;99015.78;;;11.75;100.00
8318;BME280;4196;48.926;8.964;2023-05-16T12:21:34;99059.03;;;11.70;100.00
8318;BME280;4196;48.926;8.964;2023-05-16T12:24:28;99043.56;;;11.61;100.00
8318;BME280;4196;48.926;8.964;2023-05-16T12:27:23;99055.69;;;11.56;100.00
8318;BME280;4196;48.926;8.964;2023-05-16T12:30:10;99045.16;;;11.77;99.90
8318;BME280;4196;48.926;8.964;2023-05-16T12:32:57;99052.88;;;11.88;98.81
8318;BME280;4196;48.926;8.964;2023-05-16T12:35:45;99072.06;;;11.63;99.80
8318;BME280;4196;48.926;8.964;2023-05-16T12:38:32;99041.06;;;11.49;100.00
8318;BME280;4196;48.926;8.964;2023-05-16T12:41:20;99028.16;;;11.36;99.36
8318;BME280;4196;48.926;8.964;2023-05-16T12:44:16;99075.56;;;11.58;100.00
8318;BME280;4196;48.926;8.964;2023-05-16T12:47:08;99075.53;;;11.61;100.00
8318;BME280;4196;48.926;8.964;2023-05-16T12:49:56;99055.72;;;11.53;99.50
8318;BME280;4196;48.926;8.964;2023-05-16T12:52:47;99043.66;;;11.47;98.79
8318;BME280;4196;48.926;8.964;2023-05-16T12:55:34;99054.69;;;11.75;98.44
8318;BME280;4196;48.926;8.964;2023-05-16T12:58:21;99067.63;;;11.86;98.63
8318;BME280;4196;48.926;8.964;2023-05-16T13:01:08;99061.56;;;11.81;96.97
8318;BME280;4196;48.926;8.964;2023-05-16T13:03:54;99046.06;;;11.75;98.14
8318;BME280;4196;48.926;8.964;2023-05-16T13:06:41;99069.25;;;11.98;94.68
8318;BME280;4196;48.926;8.964;2023-05-16T13:09:44;99051.31;;;11.63;95.15
8318;BME280;4196;48.926;8.964;2023-05-16T13:12:31;99059.91;;;11.71;94.92
8318;BME280;4196;48.926;8.964;2023-05-16T13:15:17;99048.59;;;11.82;95.62
8318;BME280;4196;48.926;8.964;2023-05-16T13:18:04;99070.66;;;12.32;95.71
8318;BME280;4196;48.926;8.964;2023-05-16T13:20:50;99059.25;;;12.49;90.85
8318;BME280;4196;48.926;8.964;2023-05-16T13:23:37;99056.56;;;12.58;87.55
8318;BME280;4196;48.926;8.964;2023-05-16T13:26:24;99070.28;;;12.69;85.98
8318;BME280;4196;48.926;8.964;2023-05-16T13:29:11;99068.63;;;12.62;85.56
8318;BME280;4196;48.926;8.964;2023-05-16T13:31:58;99072.97;;;12.62;83.87
8318;BME280;4196;48.926;8.964;2023-05-16T13:34:44;99065.22;;;12.57;83.31
8318;BME280;4196;48.926;8.964;2023-05-16T13:37:30;99074.34;;;12.92;83.85
8318;BME280;4196;48.926;8.964;2023-05-16T13:40:17;99059.31;;;13.18;82.49
8318;BME280;4196;48.926;8.964;2023-05-16T13:43:03;99068.94;;;13.10;80.55
8318;BME280;4196;48.926;8.964;2023-05-16T13:45:51;99075.38;;;13.49;79.24
8318;BME280;4196;48.926;8.964;2023-05-16T13:48:38;99069.06;;;13.67;78.34
8318;BME280;4196;48.926;8.964;2023-05-16T13:51:24;99074.66;;;13.97;76.18
8318;BME280;4196;48.926;8.964;2023-05-16T13:54:11;99066.09;;;13.90;74.64
8318;BME280;4196;48.926;8.964;2023-05-16T13:56:57;99077.34;;;13.91;73.77
8318;BME280;4196;48.926;8.964;2023-05-16T13:59:44;99078.56;;;13.68;74.22
8318;BME280;4196;48.926;8.964;2023-05-16T14:02:56;99058.06;;;13.47;72.64
8318;BME280;4196;48.926;8.964;2023-05-16T14:05:43;99040.00;;;13.36;69.69
8318;BME280;4196;48.926;8.964;2023-05-16T14:08:30;99084.78;;;13.58;70.70
8318;BME280;4196;48.926;8.964;2023-05-16T14:11:16;99093.00;;;13.89;69.41
8318;BME280;4196;48.926;8.964;2023-05-16T14:14:05;99089.63;;;13.83;70.04
8318;BME280;4196;48.926;8.964;2023-05-16T14:16:51;99092.16;;;13.89;69.26
8318;BME280;4196;48.926;8.964;2023-05-16T14:19:37;99090.66;;;13.72;68.60
8318;BME280;4196;48.926;8.964;2023-05-16T14:22:24;99075.56;;;13.96;72.38
8318;BME280;4196;48.926;8.964;2023-05-16T14:25:11;99078.69;;;14.16;74.71
8318;BME280;4196;48.926;8.964;2023-05-16T14:27:58;99057.69;;;14.25;76.10
8318;BME280;4196;48.926;8.964;2023-05-16T14:30:44;99070.78;;;14.22;76.25
8318;BME280;4196;48.926;8.964;2023-05-16T14:33:33;99073.00;;;14.44;77.29
8318;BME280;4196;48.926;8.964;2023-05-16T14:36:19;99045.25;;;14.41;75.60
8318;BME280;4196;48.926;8.964;2023-05-16T14:39:05;99083.72;;;14.75;73.91
8318;BME280;4196;48.926;8.964;2023-05-16T14:41:53;99081.41;;;15.05;73.59
8318;BME280;4196;48.926;8.964;2023-05-16T14:44:39;99080.16;;;15.22;71.47
8318;BME280;4196;48.926;8.964;2023-05-16T14:47:26;99067.34;;;15.13;72.59
8318;BME280;4196;48.926;8.964;2023-05-16T14:50:13;99089.25;;;15.46;69.95
8318;BME280;4196;48.926;8.964;2023-05-16T14:53:00;99085.28;;;15.29;68.09
8318;BME280;4196;48.926;8.964;2023-05-16T14:55:46;99085.44;;;15.19;69.79
8318;BME280;4196;48.926;8.964;2023-05-16T14:58:33;99087.69;;;14.96;69.24
8318;BME280;4196;48.926;8.964;2023-05-16T15:01:20;99057.09;;;14.10;71.21
8318;BME280;4196;48.926;8.964;2023-05-16T15:04:07;99090.00;;;14.15;75.39
8318;BME280;4196;48.926;8.964;2023-05-16T15:06:54;99064.88;;;14.11;73.86
8318;BME280;4196;48.926;8.964;2023-05-16T15:09:41;99092.53;;;14.18;74.79
8318;BME280;4196;48.926;8.964;2023-05-16T15:12:27;99100.41;;;14.15;74.59
8318;BME280;4196;48.926;8.964;2023-05-16T15:15:14;99096.22;;;14.05;72.49
8318;BME280;4196;48.926;8.964;2023-05-16T15:18:01;99046.69;;;13.54;73.78
8318;BME280;4196;48.926;8.964;2023-05-16T15:20:48;99068.19;;;13.65;73.29
8318;BME280;4196;48.926;8.964;2023-05-16T15:23:34;99080.34;;;13.66;73.96
8318;BME280;4196;48.926;8.964;2023-05-16T15:26:21;99088.00;;;13.75;72.11
8318;BME280;4196;48.926;8.964;2023-05-16T15:29:08;99094.59;;;13.41;68.18